sensor_id;sensor_type;location;lat;lon;timestamp;P1;durP1;ratioP1;P2;durP2;ratioP2
17404;SDS011;8820;54.604;18.226;2023-01-05T00:01:49;10.63;;;3.90;;
17404;SDS011;8820;54.604;18.226;2023-01-05T00:04:18;15.30;;;3.53;;
17404;SDS011;8820;54.604;18.226;2023-01-05T00:06:47;11.93;;;3.77;;
17404;SDS011;8820;54.604;18.226;2023-01-05T00:09:16;14.97;;;3.60;;
17404;SDS011;8820;54.604;18.226;2023-01-05T00:11:45;11.00;;;3.67;;
17404;SDS011;8820;54.604;18.226;2023-01-05T00:14:33;8.77;;;3.90;;
17404;SDS011;8820;54.604;18.226;2023-01-05T00:17:20;6.70;;;3.80;;
17404;SDS011;8820;54.604;18.226;2023-01-05T00:20:10;9.53;;;3.67;;
17404;SDS011;8820;54.604;18.226;2023-01-05T00:22:58;12.53;;;4.43;;
17404;SDS011;8820;54.604;18.226;2023-01-05T00:25:28;12.23;;;4.17;;
17404;SDS011;8820;54.604;18.226;2023-01-05T00:27:59;17.90;;;4.77;;
17404;SDS011;8820;54.604;18.226;2023-01-05T00:30:30;15.13;;;3.97;;
17404;SDS011;8820;54.604;18.226;2023-01-05T00:33:01;15.53;;;4.30;;
17404;SDS011;8820;54.604;18.226;2023-01-05T00:35:30;18.70;;;4.97;;
17404;SDS011;8820;54.604;18.226;2023-01-05T00:37:59;18.97;;;4.93;;
17404;SDS011;8820;54.604;18.226;2023-01-05T00:40:28;22.00;;;4.93;;
17404;SDS011;8820;54.604;18.226;2023-01-05T00:42:57;22.30;;;4.83;;
17404;SDS011;8820;54.604;18.226;2023-01-05T00:45:26;26.87;;;5.30;;
17404;SDS011;8820;54.604;18.226;2023-01-05T00:47:57;22.67;;;6.10;;
17404;SDS011;8820;54.604;18.226;2023-01-05T00:50:27;27.10;;;5.80;;
17404;SDS011;8820;54.604;18.226;2023-01-05T00:52:55;25.50;;;5.50;;
17404;SDS011;8820;54.604;18.226;2023-01-05T00:55:24;22.07;;;5.53;;
17404;SDS011;8820;54.604;18.226;2023-01-05T00:57:53;19.70;;;5.87;;
17404;SDS011;8820;54.604;18.226;2023-01-05T01:00:23;30.17;;;5.50;;
17404;SDS011;8820;54.604;18.226;2023-01-05T01:02:52;22.80;;;5.90;;
17404;SDS011;8820;54.604;18.226;2023-01-05T01:05:22;23.00;;;5.13;;
17404;SDS011;8820;54.604;18.226;2023-01-05T01:07:51;19.37;;;5.67;;
17404;SDS011;8820;54.604;18.226;2023-01-05T01:10:20;27.23;;;5.57;;
17404;SDS011;8820;54.604;18.226;2023-01-05T01:12:51;23.63;;;6.63;;
17404;SDS011;8820;54.604;18.226;2023-01-05T01:15:20;24.07;;;6.33;;
17404;SDS011;8820;54.604;18.226;2023-01-05T01:17:49;25.17;;;5.23;;
17404;SDS011;8820;54.604;18.226;2023-01-05T01:20:18;28.20;;;6.67;;
17404;SDS011;8820;54.604;18.226;2023-01-05T01:22:48;29.23;;;5.70;;
17404;SDS011;8820;54.604;18.226;2023-01-05T01:25:18;27.03;;;5.87;;
17404;SDS011;8820;54.604;18.226;2023-01-05T01:27:47;31.73;;;6.10;;
17404;SDS011;8820;54.604;18.226;2023-01-05T01:30:16;25.23;;;6.03;;
17404;SDS011;8820;54.604;18.226;2023-01-05T01:32:45;26.10;;;6.20;;
17404;SDS011;8820;54.604;18.226;2023-01-05T01:35:14;22.60;;;5.63;;
17404;SDS011;8820;54.604;18.226;2023-01-05T01:37:43;26.33;;;6.33;;
17404;SDS011;8820;54.604;18.226;2023-01-05T01:40:14;20.60;;;5.53;;
17404;SDS011;8820;54.604;18.226;2023-01-05T01:42:43;27.03;;;6.80;;
17404;SDS011;8820;54.604;18.226;2023-01-05T01:45:17;36.50;;;6.10;;
17404;SDS011;8820;54.604;18.226;2023-01-05T01:47:48;21.47;;;6.30;;
17404;SDS011;8820;54.604;18.226;2023-01-05T01:50:21;23.47;;;5.77;;
17404;SDS011;8820;54.604;18.226;2023-01-05T01:52:56;21.60;;;5.90;;
17404;SDS011;8820;54.604;18.226;2023-01-05T01:55:29;20.27;;;6.13;;
17404;SDS011;8820;54.604;18.226;2023-01-05T01:58:00;21.63;;;5.50;;
17404;SDS011;8820;54.604;18.226;2023-01-05T02:00:33;21.50;;;5.17;;
17404;SDS011;8820;54.604;18.226;2023-01-05T02:03:02;19.73;;;5.93;;
17404;SDS011;8820;54.604;18.226;2023-01-05T02:05:33;24.70;;;5.00;;
17404;SDS011;8820;54.604;18.226;2023-01-05T02:08:05;22.37;;;5.67;;
17404;SDS011;8820;54.604;18.226;2023-01-05T02:10:48;19.93;;;4.87;;
17404;SDS011;8820;54.604;18.226;2023-01-05T02:13:29;16.63;;;4.90;;
17404;SDS011;8820;54.604;18.226;2023-01-05T02:16:08;17.73;;;4.77;;
17404;SDS011;8820;54.604;18.226;2023-01-05T02:18:55;15.63;;;4.97;;
17404;SDS011;8820;54.604;18.226;2023-01-05T02:21:43;19.20;;;4.50;;
17404;SDS011;8820;54.604;18.226;2023-01-05T02:24:47;24.37;;;4.63;;
17404;SDS011;8820;54.604;18.226;2023-01-05T02:27:46;17.90;;;4.77;;
17404;SDS011;8820;54.604;18.226;2023-01-05T02:33:16;15.63;;;4.90;;
17404;SDS011;8820;54.604;18.226;2023-01-05T02:35:56;17.67;;;4.80;;
17404;SDS011;8820;54.604;18.226;2023-01-05T02:38:32;16.77;;;4.57;;
17404;SDS011;8820;54.604;18.226;2023-01-05T02:41:06;14.20;;;4.30;;
17404;SDS011;8820;54.604;18.226;2023-01-05T02:43:42;14.13;;;5.03;;
17404;SDS011;8820;54.604;18.226;2023-01-05T02:46:13;11.87;;;4.60;;
17404;SDS011;8820;54.604;18.226;2023-01-05T02:48:42;16.23;;;5.17;;
17404;SDS011;8820;54.604;18.226;2023-01-05T02:51:17;20.97;;;8.50;;
17404;SDS011;8820;54.604;18.226;2023-01-05T02:53:52;16.00;;;4.40;;
17404;SDS011;8820;54.604;18.226;2023-01-05T02:56:27;15.03;;;4.23;;
17404;SDS011;8820;54.604;18.226;2023-01-05T02:59:00;10.27;;;3.80;;
17404;SDS011;8820;54.604;18.226;2023-01-05T03:01:35;10.83;;;3.97;;
17404;SDS011;8820;54.604;18.226;2023-01-05T03:04:08;12.20;;;4.30;;
17404;SDS011;8820;54.604;18.226;2023-01-05T03:06:43;10.20;;;3.73;;
17404;SDS011;8820;54.604;18.226;2023-01-05T03:09:24;8.37;;;3.53;;
17404;SDS011;8820;54.604;18.226;2023-01-05T03:11:57;8.20;;;3.40;;
17404;SDS011;8820;54.604;18.226;2023-01-05T03:14:49;13.20;;;3.50;;
17404;SDS011;8820;54.604;18.226;2023-01-05T03:17:24;6.67;;;2.93;;
17404;SDS011;8820;54.604;18.226;2023-01-05T03:19:57;10.70;;;3.20;;
17404;SDS011;8820;54.604;18.226;2023-01-05T03:22:28;7.60;;;3.63;;
17404;SDS011;8820;54.604;18.226;2023-01-05T03:25:17;12.97;;;3.30;;
17404;SDS011;8820;54.604;18.226;2023-01-05T03:28:09;6.70;;;2.63;;
17404;SDS011;8820;54.604;18.226;2023-01-05T03:31:03;4.37;;;2.77;;
17404;SDS011;8820;54.604;18.226;2023-01-05T03:33:56;6.07;;;3.20;;
17404;SDS011;8820;54.604;18.226;2023-01-05T03:36:52;7.67;;;2.60;;
17404;SDS011;8820;54.604;18.226;2023-01-05T03:39:26;5.27;;;2.90;;
17404;SDS011;8820;54.604;18.226;2023-01-05T03:42:01;6.43;;;3.60;;
17404;SDS011;8820;54.604;18.226;2023-01-05T03:44:33;8.63;;;3.67;;
17404;SDS011;8820;54.604;18.226;2023-01-05T03:47:03;7.37;;;2.70;;
17404;SDS011;8820;54.604;18.226;2023-01-05T03:49:34;8.23;;;3.67;;
17404;SDS011;8820;54.604;18.226;2023-01-05T03:52:04;9.83;;;2.93;;
17404;SDS011;8820;54.604;18.226;2023-01-05T03:54:33;5.87;;;3.23;;
17404;SDS011;8820;54.604;18.226;2023-01-05T03:57:02;7.30;;;3.03;;
17404;SDS011;8820;54.604;18.226;2023-01-05T03:59:31;7.90;;;3.10;;
17404;SDS011;8820;54.604;18.226;2023-01-05T04:02:01;6.40;;;2.90;;
17404;SDS011;8820;54.604;18.226;2023-01-05T04:04:31;9.27;;;3.77;;
17404;SDS011;8820;54.604;18.226;2023-01-05T04:07:05;13.37;;;3.73;;
17404;SDS011;8820;54.604;18.226;2023-01-05T04:09:34;4.50;;;3.00;;
17404;SDS011;8820;54.604;18.226;2023-01-05T04:12:04;6.23;;;3.10;;
17404;SDS011;8820;54.604;18.226;2023-01-05T04:14:37;5.53;;;3.23;;
17404;SDS011;8820;54.604;18.226;2023-01-05T04:17:07;8.07;;;3.53;;
17404;SDS011;8820;54.604;18.226;2023-01-05T04:19:37;7.63;;;3.13;;
17404;SDS011;8820;54.604;18.226;2023-01-05T04:22:08;6.53;;;3.37;;
17404;SDS011;8820;54.604;18.226;2023-01-05T04:24:37;4.87;;;3.03;;
17404;SDS011;8820;54.604;18.226;2023-01-05T04:27:06;5.87;;;2.80;;
17404;SDS011;8820;54.604;18.226;2023-01-05T04:29:37;3.10;;;2.30;;
17404;SDS011;8820;54.604;18.226;2023-01-05T04:32:06;4.07;;;2.30;;
17404;SDS011;8820;54.604;18.226;2023-01-05T04:34:36;3.87;;;1.90;;
17404;SDS011;8820;54.604;18.226;2023-01-05T04:37:07;5.67;;;2.10;;
17404;SDS011;8820;54.604;18.226;2023-01-05T04:39:36;3.53;;;2.83;;
17404;SDS011;8820;54.604;18.226;2023-01-05T04:42:06;5.40;;;2.40;;
17404;SDS011;8820;54.604;18.226;2023-01-05T04:44:36;3.80;;;2.53;;
17404;SDS011;8820;54.604;18.226;2023-01-05T04:47:05;4.00;;;2.30;;
17404;SDS011;8820;54.604;18.226;2023-01-05T04:49:38;9.97;;;3.03;;
17404;SDS011;8820;54.604;18.226;2023-01-05T04:52:10;9.33;;;3.57;;
17404;SDS011;8820;54.604;18.226;2023-01-05T04:54:39;9.90;;;3.50;;
17404;SDS011;8820;54.604;18.226;2023-01-05T04:57:08;7.50;;;3.20;;
17404;SDS011;8820;54.604;18.226;2023-01-05T04:59:38;12.37;;;3.53;;
17404;SDS011;8820;54.604;18.226;2023-01-05T05:02:07;9.00;;;3.00;;
17404;SDS011;8820;54.604;18.226;2023-01-05T05:04:41;10.77;;;3.40;;
17404;SDS011;8820;54.604;18.226;2023-01-05T05:07:12;9.37;;;3.70;;
17404;SDS011;8820;54.604;18.226;2023-01-05T05:09:41;9.23;;;3.83;;
17404;SDS011;8820;54.604;18.226;2023-01-05T05:12:10;7.23;;;3.50;;
17404;SDS011;8820;54.604;18.226;2023-01-05T05:14:39;10.70;;;3.67;;
17404;SDS011;8820;54.604;18.226;2023-01-05T05:17:08;9.83;;;4.20;;
17404;SDS011;8820;54.604;18.226;2023-01-05T05:19:38;11.67;;;4.10;;
17404;SDS011;8820;54.604;18.226;2023-01-05T05:22:07;8.87;;;3.83;;
17404;SDS011;8820;54.604;18.226;2023-01-05T05:24:50;16.67;;;3.93;;
17404;SDS011;8820;54.604;18.226;2023-01-05T05:27:21;11.00;;;3.93;;
17404;SDS011;8820;54.604;18.226;2023-01-05T05:29:50;21.27;;;4.47;;
17404;SDS011;8820;54.604;18.226;2023-01-05T05:32:18;15.43;;;4.00;;
17404;SDS011;8820;54.604;18.226;2023-01-05T05:34:47;13.77;;;4.23;;
17404;SDS011;8820;54.604;18.226;2023-01-05T05:37:16;13.53;;;4.00;;
17404;SDS011;8820;54.604;18.226;2023-01-05T05:39:45;10.37;;;4.40;;
17404;SDS011;8820;54.604;18.226;2023-01-05T05:42:16;14.53;;;4.87;;
17404;SDS011;8820;54.604;18.226;2023-01-05T05:44:44;12.53;;;3.70;;
17404;SDS011;8820;54.604;18.226;2023-01-05T05:47:13;15.23;;;4.60;;
17404;SDS011;8820;54.604;18.226;2023-01-05T05:49:42;14.67;;;4.03;;
17404;SDS011;8820;54.604;18.226;2023-01-05T05:52:11;16.17;;;5.30;;
17404;SDS011;8820;54.604;18.226;2023-01-05T05:54:40;18.37;;;4.20;;
17404;SDS011;8820;54.604;18.226;2023-01-05T05:57:09;12.57;;;4.10;;
17404;SDS011;8820;54.604;18.226;2023-01-05T05:59:39;13.37;;;3.70;;
17404;SDS011;8820;54.604;18.226;2023-01-05T06:02:08;13.40;;;3.90;;
17404;SDS011;8820;54.604;18.226;2023-01-05T06:04:37;17.23;;;4.33;;
17404;SDS011;8820;54.604;18.226;2023-01-05T06:07:06;16.37;;;4.50;;
17404;SDS011;8820;54.604;18.226;2023-01-05T06:09:35;17.97;;;4.83;;
17404;SDS011;8820;54.604;18.226;2023-01-05T06:12:04;14.00;;;4.10;;
17404;SDS011;8820;54.604;18.226;2023-01-05T06:14:33;14.80;;;3.87;;
17404;SDS011;8820;54.604;18.226;2023-01-05T06:17:03;16.37;;;3.90;;
17404;SDS011;8820;54.604;18.226;2023-01-05T06:19:32;16.70;;;3.97;;
17404;SDS011;8820;54.604;18.226;2023-01-05T06:22:01;20.33;;;3.70;;
17404;SDS011;8820;54.604;18.226;2023-01-05T06:24:30;16.03;;;3.97;;
17404;SDS011;8820;54.604;18.226;2023-01-05T06:26:59;13.97;;;3.27;;
17404;SDS011;8820;54.604;18.226;2023-01-05T06:29:27;14.43;;;3.37;;
17404;SDS011;8820;54.604;18.226;2023-01-05T06:31:56;10.77;;;4.10;;
17404;SDS011;8820;54.604;18.226;2023-01-05T06:34:27;10.80;;;3.07;;
17404;SDS011;8820;54.604;18.226;2023-01-05T06:36:56;6.93;;;3.07;;
17404;SDS011;8820;54.604;18.226;2023-01-05T06:39:27;7.37;;;3.27;;
17404;SDS011;8820;54.604;18.226;2023-01-05T06:41:56;6.83;;;3.43;;
17404;SDS011;8820;54.604;18.226;2023-01-05T06:44:25;7.40;;;3.10;;
17404;SDS011;8820;54.604;18.226;2023-01-05T06:46:54;9.77;;;2.90;;
17404;SDS011;8820;54.604;18.226;2023-01-05T06:49:23;6.67;;;3.03;;
17404;SDS011;8820;54.604;18.226;2023-01-05T06:51:53;6.73;;;2.83;;
17404;SDS011;8820;54.604;18.226;2023-01-05T06:54:22;5.97;;;2.93;;
17404;SDS011;8820;54.604;18.226;2023-01-05T06:56:51;11.30;;;3.27;;
17404;SDS011;8820;54.604;18.226;2023-01-05T06:59:20;11.10;;;3.13;;
17404;SDS011;8820;54.604;18.226;2023-01-05T07:01:49;7.03;;;3.70;;
17404;SDS011;8820;54.604;18.226;2023-01-05T07:04:18;24.97;;;12.33;;
17404;SDS011;8820;54.604;18.226;2023-01-05T07:06:47;13.23;;;3.53;;
17404;SDS011;8820;54.604;18.226;2023-01-05T07:09:17;12.17;;;3.70;;
17404;SDS011;8820;54.604;18.226;2023-01-05T07:11:46;5.83;;;2.70;;
17404;SDS011;8820;54.604;18.226;2023-01-05T07:14:14;6.60;;;3.17;;
17404;SDS011;8820;54.604;18.226;2023-01-05T07:16:43;11.70;;;3.30;;
17404;SDS011;8820;54.604;18.226;2023-01-05T07:19:12;5.23;;;2.77;;
17404;SDS011;8820;54.604;18.226;2023-01-05T07:21:41;5.70;;;2.83;;
17404;SDS011;8820;54.604;18.226;2023-01-05T07:24:10;11.27;;;4.30;;
17404;SDS011;8820;54.604;18.226;2023-01-05T07:26:41;9.93;;;3.10;;
17404;SDS011;8820;54.604;18.226;2023-01-05T07:29:09;10.50;;;3.33;;
17404;SDS011;8820;54.604;18.226;2023-01-05T07:31:38;9.10;;;2.80;;
17404;SDS011;8820;54.604;18.226;2023-01-05T07:34:07;8.87;;;3.30;;
17404;SDS011;8820;54.604;18.226;2023-01-05T07:36:36;4.67;;;2.97;;
17404;SDS011;8820;54.604;18.226;2023-01-05T07:39:05;4.30;;;2.33;;
17404;SDS011;8820;54.604;18.226;2023-01-05T07:41:34;8.03;;;3.30;;
17404;SDS011;8820;54.604;18.226;2023-01-05T07:44:05;7.13;;;3.70;;
17404;SDS011;8820;54.604;18.226;2023-01-05T07:46:34;9.13;;;3.07;;
17404;SDS011;8820;54.604;18.226;2023-01-05T07:49:03;13.30;;;2.90;;
17404;SDS011;8820;54.604;18.226;2023-01-05T07:51:32;10.40;;;2.80;;
17404;SDS011;8820;54.604;18.226;2023-01-05T07:54:01;11.27;;;6.37;;
17404;SDS011;8820;54.604;18.226;2023-01-05T07:56:30;7.93;;;3.40;;
17404;SDS011;8820;54.604;18.226;2023-01-05T07:58:59;6.13;;;3.47;;
17404;SDS011;8820;54.604;18.226;2023-01-05T08:01:29;5.57;;;2.90;;
17404;SDS011;8820;54.604;18.226;2023-01-05T08:03:58;7.67;;;3.47;;
17404;SDS011;8820;54.604;18.226;2023-01-05T08:06:27;9.37;;;3.33;;
17404;SDS011;8820;54.604;18.226;2023-01-05T08:08:56;4.17;;;3.20;;
17404;SDS011;8820;54.604;18.226;2023-01-05T08:11:44;9.00;;;3.20;;
17404;SDS011;8820;54.604;18.226;2023-01-05T08:14:13;6.73;;;3.40;;
17404;SDS011;8820;54.604;18.226;2023-01-05T08:16:43;6.33;;;3.33;;
17404;SDS011;8820;54.604;18.226;2023-01-05T08:19:12;9.93;;;4.03;;
17404;SDS011;8820;54.604;18.226;2023-01-05T08:21:41;11.33;;;3.67;;
17404;SDS011;8820;54.604;18.226;2023-01-05T08:24:10;9.87;;;4.67;;
17404;SDS011;8820;54.604;18.226;2023-01-05T08:26:39;8.90;;;4.63;;
17404;SDS011;8820;54.604;18.226;2023-01-05T08:29:08;8.33;;;4.53;;
17404;SDS011;8820;54.604;18.226;2023-01-05T08:31:38;8.43;;;4.20;;
17404;SDS011;8820;54.604;18.226;2023-01-05T08:34:09;9.87;;;3.37;;
17404;SDS011;8820;54.604;18.226;2023-01-05T08:36:38;5.00;;;3.60;;
17404;SDS011;8820;54.604;18.226;2023-01-05T08:39:08;9.37;;;3.53;;
17404;SDS011;8820;54.604;18.226;2023-01-05T08:41:38;10.63;;;3.40;;
17404;SDS011;8820;54.604;18.226;2023-01-05T08:44:10;5.97;;;3.30;;
17404;SDS011;8820;54.604;18.226;2023-01-05T08:46:40;10.97;;;3.40;;
17404;SDS011;8820;54.604;18.226;2023-01-05T08:49:10;12.97;;;4.27;;
17404;SDS011;8820;54.604;18.226;2023-01-05T08:51:39;10.73;;;3.37;;
17404;SDS011;8820;54.604;18.226;2023-01-05T08:54:08;8.70;;;2.77;;
17404;SDS011;8820;54.604;18.226;2023-01-05T08:56:37;12.57;;;3.33;;
17404;SDS011;8820;54.604;18.226;2023-01-05T08:59:06;12.37;;;6.40;;
17404;SDS011;8820;54.604;18.226;2023-01-05T09:01:39;12.77;;;3.43;;
17404;SDS011;8820;54.604;18.226;2023-01-05T09:04:08;10.50;;;3.07;;
17404;SDS011;8820;54.604;18.226;2023-01-05T09:06:38;11.73;;;3.50;;
17404;SDS011;8820;54.604;18.226;2023-01-05T09:09:08;7.37;;;3.10;;
17404;SDS011;8820;54.604;18.226;2023-01-05T09:11:38;5.13;;;3.07;;
17404;SDS011;8820;54.604;18.226;2023-01-05T09:14:10;4.33;;;2.70;;
17404;SDS011;8820;54.604;18.226;2023-01-05T09:16:41;7.23;;;2.93;;
17404;SDS011;8820;54.604;18.226;2023-01-05T09:19:30;6.00;;;3.63;;
17404;SDS011;8820;54.604;18.226;2023-01-05T09:22:00;5.83;;;2.97;;
17404;SDS011;8820;54.604;18.226;2023-01-05T09:24:29;10.03;;;3.47;;
17404;SDS011;8820;54.604;18.226;2023-01-05T09:26:58;9.40;;;4.83;;
17404;SDS011;8820;54.604;18.226;2023-01-05T09:29:27;9.73;;;4.00;;
17404;SDS011;8820;54.604;18.226;2023-01-05T09:31:56;8.53;;;2.70;;
17404;SDS011;8820;54.604;18.226;2023-01-05T09:34:24;5.37;;;2.73;;
17404;SDS011;8820;54.604;18.226;2023-01-05T09:36:53;8.27;;;3.37;;
17404;SDS011;8820;54.604;18.226;2023-01-05T09:39:24;6.73;;;3.13;;
17404;SDS011;8820;54.604;18.226;2023-01-05T09:41:53;9.87;;;4.20;;
17404;SDS011;8820;54.604;18.226;2023-01-05T09:44:26;6.33;;;2.93;;
17404;SDS011;8820;54.604;18.226;2023-01-05T09:46:58;4.93;;;3.30;;
17404;SDS011;8820;54.604;18.226;2023-01-05T09:49:31;8.03;;;4.57;;
17404;SDS011;8820;54.604;18.226;2023-01-05T09:52:02;7.23;;;3.53;;
17404;SDS011;8820;54.604;18.226;2023-01-05T09:54:37;3.30;;;3.00;;
17404;SDS011;8820;54.604;18.226;2023-01-05T09:57:10;5.60;;;2.80;;
17404;SDS011;8820;54.604;18.226;2023-01-05T09:59:44;5.30;;;2.77;;
17404;SDS011;8820;54.604;18.226;2023-01-05T10:02:26;7.87;;;3.17;;
17404;SDS011;8820;54.604;18.226;2023-01-05T10:05:00;4.87;;;3.00;;
17404;SDS011;8820;54.604;18.226;2023-01-05T10:07:34;4.87;;;3.13;;
17404;SDS011;8820;54.604;18.226;2023-01-05T10:10:14;6.67;;;3.90;;
17404;SDS011;8820;54.604;18.226;2023-01-05T10:12:56;7.30;;;3.47;;
17404;SDS011;8820;54.604;18.226;2023-01-05T10:15:33;13.90;;;7.23;;
17404;SDS011;8820;54.604;18.226;2023-01-05T10:18:08;6.97;;;4.13;;
17404;SDS011;8820;54.604;18.226;2023-01-05T10:20:43;5.63;;;4.20;;
17404;SDS011;8820;54.604;18.226;2023-01-05T10:23:22;6.63;;;3.73;;
17404;SDS011;8820;54.604;18.226;2023-01-05T10:26:03;4.83;;;3.53;;
17404;SDS011;8820;54.604;18.226;2023-01-05T10:28:38;6.87;;;2.87;;
17404;SDS011;8820;54.604;18.226;2023-01-05T10:31:14;9.23;;;4.20;;
17404;SDS011;8820;54.604;18.226;2023-01-05T10:33:51;7.03;;;3.87;;
17404;SDS011;8820;54.604;18.226;2023-01-05T10:36:34;13.47;;;4.47;;
17404;SDS011;8820;54.604;18.226;2023-01-05T10:39:39;5.50;;;3.87;;
17404;SDS011;8820;54.604;18.226;2023-01-05T10:42:44;6.87;;;3.70;;
17404;SDS011;8820;54.604;18.226;2023-01-05T10:45:21;6.53;;;3.17;;
17404;SDS011;8820;54.604;18.226;2023-01-05T10:47:56;4.07;;;3.00;;
17404;SDS011;8820;54.604;18.226;2023-01-05T10:50:27;6.60;;;3.63;;
17404;SDS011;8820;54.604;18.226;2023-01-05T10:53:05;7.43;;;4.20;;
17404;SDS011;8820;54.604;18.226;2023-01-05T10:55:49;8.53;;;4.07;;
17404;SDS011;8820;54.604;18.226;2023-01-05T10:58:26;5.30;;;3.50;;
17404;SDS011;8820;54.604;18.226;2023-01-05T11:00:57;7.03;;;4.30;;
17404;SDS011;8820;54.604;18.226;2023-01-05T11:03:33;5.87;;;3.40;;
17404;SDS011;8820;54.604;18.226;2023-01-05T11:06:26;7.03;;;4.40;;
17404;SDS011;8820;54.604;18.226;2023-01-05T11:09:03;6.87;;;4.03;;
17404;SDS011;8820;54.604;18.226;2023-01-05T11:11:34;12.00;;;6.17;;
17404;SDS011;8820;54.604;18.226;2023-01-05T11:14:05;11.63;;;5.63;;
17404;SDS011;8820;54.604;18.226;2023-01-05T11:16:44;13.43;;;5.90;;
17404;SDS011;8820;54.604;18.226;2023-01-05T11:19:15;15.20;;;6.30;;
17404;SDS011;8820;54.604;18.226;2023-01-05T11:21:45;8.17;;;5.00;;
17404;SDS011;8820;54.604;18.226;2023-01-05T11:24:27;11.87;;;7.00;;
17404;SDS011;8820;54.604;18.226;2023-01-05T11:26:58;17.13;;;7.03;;
17404;SDS011;8820;54.604;18.226;2023-01-05T11:29:30;10.23;;;5.50;;
17404;SDS011;8820;54.604;18.226;2023-01-05T11:31:59;6.00;;;4.13;;
17404;SDS011;8820;54.604;18.226;2023-01-05T11:34:32;5.37;;;4.03;;
17404;SDS011;8820;54.604;18.226;2023-01-05T11:37:12;10.27;;;7.00;;
17404;SDS011;8820;54.604;18.226;2023-01-05T11:39:50;10.53;;;8.37;;
17404;SDS011;8820;54.604;18.226;2023-01-05T11:42:27;3.93;;;3.50;;
17404;SDS011;8820;54.604;18.226;2023-01-05T11:44:59;4.03;;;2.90;;
17404;SDS011;8820;54.604;18.226;2023-01-05T11:47:31;16.37;;;10.47;;
17404;SDS011;8820;54.604;18.226;2023-01-05T11:50:14;3.57;;;3.27;;
17404;SDS011;8820;54.604;18.226;2023-01-05T11:52:51;4.77;;;2.77;;
17404;SDS011;8820;54.604;18.226;2023-01-05T11:55:23;2.90;;;2.50;;
17404;SDS011;8820;54.604;18.226;2023-01-05T11:57:58;2.77;;;2.53;;
17404;SDS011;8820;54.604;18.226;2023-01-05T12:00:46;3.67;;;2.77;;
17404;SDS011;8820;54.604;18.226;2023-01-05T12:03:31;3.83;;;3.00;;
17404;SDS011;8820;54.604;18.226;2023-01-05T12:06:19;3.73;;;2.87;;
17404;SDS011;8820;54.604;18.226;2023-01-05T12:08:59;2.87;;;2.67;;
17404;SDS011;8820;54.604;18.226;2023-01-05T12:11:35;3.53;;;2.43;;
17404;SDS011;8820;54.604;18.226;2023-01-05T12:14:16;3.03;;;2.63;;
17404;SDS011;8820;54.604;18.226;2023-01-05T12:16:56;13.83;;;7.57;;
17404;SDS011;8820;54.604;18.226;2023-01-05T12:19:39;6.53;;;3.30;;
17404;SDS011;8820;54.604;18.226;2023-01-05T12:22:24;3.63;;;3.17;;
17404;SDS011;8820;54.604;18.226;2023-01-05T12:25:20;4.83;;;3.97;;
17404;SDS011;8820;54.604;18.226;2023-01-05T12:28:08;5.23;;;3.50;;
17404;SDS011;8820;54.604;18.226;2023-01-05T12:31:12;8.73;;;5.03;;
17404;SDS011;8820;54.604;18.226;2023-01-05T12:37:21;22.33;;;13.33;;
17404;SDS011;8820;54.604;18.226;2023-01-05T12:40:05;6.27;;;4.33;;
17404;SDS011;8820;54.604;18.226;2023-01-05T12:42:56;3.77;;;3.20;;
17404;SDS011;8820;54.604;18.226;2023-01-05T12:45:29;2.70;;;2.47;;
17404;SDS011;8820;54.604;18.226;2023-01-05T12:48:07;1.93;;;1.70;;
17404;SDS011;8820;54.604;18.226;2023-01-05T12:50:41;2.33;;;2.13;;
17404;SDS011;8820;54.604;18.226;2023-01-05T12:53:18;2.87;;;2.20;;
17404;SDS011;8820;54.604;18.226;2023-01-05T12:55:55;2.43;;;2.23;;
17404;SDS011;8820;54.604;18.226;2023-01-05T12:58:27;1.90;;;1.80;;
17404;SDS011;8820;54.604;18.226;2023-01-05T13:01:00;2.07;;;1.97;;
17404;SDS011;8820;54.604;18.226;2023-01-05T13:03:34;1.77;;;1.67;;
17404;SDS011;8820;54.604;18.226;2023-01-05T13:06:11;5.10;;;2.37;;
17404;SDS011;8820;54.604;18.226;2023-01-05T13:08:46;1.70;;;1.60;;
17404;SDS011;8820;54.604;18.226;2023-01-05T13:11:21;2.10;;;1.90;;
17404;SDS011;8820;54.604;18.226;2023-01-05T13:13:54;3.33;;;3.00;;
17404;SDS011;8820;54.604;18.226;2023-01-05T13:16:27;5.57;;;2.50;;
17404;SDS011;8820;54.604;18.226;2023-01-05T13:19:03;3.83;;;2.73;;
17404;SDS011;8820;54.604;18.226;2023-01-05T13:21:37;2.63;;;2.43;;
17404;SDS011;8820;54.604;18.226;2023-01-05T13:24:12;3.30;;;2.80;;
17404;SDS011;8820;54.604;18.226;2023-01-05T13:26:48;4.60;;;3.40;;
17404;SDS011;8820;54.604;18.226;2023-01-05T13:29:20;3.07;;;2.20;;
17404;SDS011;8820;54.604;18.226;2023-01-05T13:32:01;3.43;;;3.13;;
17404;SDS011;8820;54.604;18.226;2023-01-05T13:34:54;2.97;;;2.43;;
17404;SDS011;8820;54.604;18.226;2023-01-05T13:40:48;3.13;;;2.57;;
17404;SDS011;8820;54.604;18.226;2023-01-05T13:46:31;4.70;;;2.40;;
17404;SDS011;8820;54.604;18.226;2023-01-05T13:49:24;2.90;;;2.70;;
17404;SDS011;8820;54.604;18.226;2023-01-05T13:52:03;2.90;;;2.60;;
17404;SDS011;8820;54.604;18.226;2023-01-05T13:54:45;6.47;;;3.40;;
17404;SDS011;8820;54.604;18.226;2023-01-05T13:57:37;6.43;;;3.43;;
17404;SDS011;8820;54.604;18.226;2023-01-05T14:00:18;3.20;;;2.67;;
17404;SDS011;8820;54.604;18.226;2023-01-05T14:02:55;6.03;;;2.40;;
17404;SDS011;8820;54.604;18.226;2023-01-05T14:05:33;2.50;;;2.30;;
17404;SDS011;8820;54.604;18.226;2023-01-05T14:08:16;5.20;;;4.07;;
17404;SDS011;8820;54.604;18.226;2023-01-05T14:11:05;11.83;;;4.07;;
17404;SDS011;8820;54.604;18.226;2023-01-05T14:13:41;5.13;;;3.20;;
17404;SDS011;8820;54.604;18.226;2023-01-05T14:19:48;4.13;;;3.37;;
17404;SDS011;8820;54.604;18.226;2023-01-05T14:22:23;3.27;;;2.97;;
17404;SDS011;8820;54.604;18.226;2023-01-05T14:34:14;4.67;;;3.40;;
17404;SDS011;8820;54.604;18.226;2023-01-05T14:36:47;3.23;;;3.03;;
17404;SDS011;8820;54.604;18.226;2023-01-05T14:39:35;4.07;;;2.73;;
17404;SDS011;8820;54.604;18.226;2023-01-05T14:42:14;4.73;;;3.50;;
17404;SDS011;8820;54.604;18.226;2023-01-05T14:44:49;3.13;;;2.80;;
17404;SDS011;8820;54.604;18.226;2023-01-05T14:47:31;6.17;;;3.50;;
17404;SDS011;8820;54.604;18.226;2023-01-05T14:50:01;7.57;;;3.93;;
17404;SDS011;8820;54.604;18.226;2023-01-05T14:52:51;5.23;;;3.67;;
17404;SDS011;8820;54.604;18.226;2023-01-05T14:55:24;4.40;;;3.50;;
17404;SDS011;8820;54.604;18.226;2023-01-05T14:58:10;4.00;;;3.50;;
17404;SDS011;8820;54.604;18.226;2023-01-05T15:00:45;4.20;;;3.17;;
17404;SDS011;8820;54.604;18.226;2023-01-05T15:03:20;5.27;;;3.60;;
17404;SDS011;8820;54.604;18.226;2023-01-05T15:05:58;4.00;;;3.57;;
17404;SDS011;8820;54.604;18.226;2023-01-05T15:12:05;4.00;;;3.60;;
17404;SDS011;8820;54.604;18.226;2023-01-05T15:15:11;4.17;;;3.87;;
17404;SDS011;8820;54.604;18.226;2023-01-05T15:18:00;4.33;;;3.83;;
17404;SDS011;8820;54.604;18.226;2023-01-05T15:21:08;5.70;;;3.87;;
17404;SDS011;8820;54.604;18.226;2023-01-05T15:27:03;6.07;;;3.97;;
17404;SDS011;8820;54.604;18.226;2023-01-05T15:30:00;8.43;;;3.50;;
17404;SDS011;8820;54.604;18.226;2023-01-05T15:32:48;7.97;;;4.10;;
17404;SDS011;8820;54.604;18.226;2023-01-05T15:35:27;5.33;;;4.37;;
17404;SDS011;8820;54.604;18.226;2023-01-05T15:38:11;4.97;;;4.47;;
17404;SDS011;8820;54.604;18.226;2023-01-05T15:40:45;5.93;;;4.07;;
17404;SDS011;8820;54.604;18.226;2023-01-05T15:43:17;6.70;;;4.30;;
17404;SDS011;8820;54.604;18.226;2023-01-05T15:45:47;6.60;;;4.87;;
17404;SDS011;8820;54.604;18.226;2023-01-05T15:48:22;5.97;;;5.37;;
17404;SDS011;8820;54.604;18.226;2023-01-05T15:50:56;6.43;;;4.47;;
17404;SDS011;8820;54.604;18.226;2023-01-05T15:53:26;5.93;;;4.33;;
17404;SDS011;8820;54.604;18.226;2023-01-05T15:56:00;7.70;;;4.47;;
17404;SDS011;8820;54.604;18.226;2023-01-05T15:58:31;5.83;;;4.40;;